sensor_id;sensor_type;location;lat;lon;timestamp;temperature;humidity
6252;DHT22;3159;52.414;9.784;2023-02-01T00:01:07;5.40;99.90
6252;DHT22;3159;52.414;9.784;2023-02-01T00:03:34;5.40;99.90
6252;DHT22;3159;52.414;9.784;2023-02-01T00:06:01;5.40;99.90
6252;DHT22;3159;52.414;9.784;2023-02-01T00:08:29;5.40;99.90
6252;DHT22;3159;52.414;9.784;2023-02-01T00:10:59;5.50;99.90
6252;DHT22;3159;52.414;9.784;2023-02-01T00:13:28;5.40;99.90
6252;DHT22;3159;52.414;9.784;2023-02-01T00:16:02;5.50;99.90
6252;DHT22;3159;52.414;9.784;2023-02-01T00:18:29;5.50;99.90
6252;DHT22;3159;52.414;9.784;2023-02-01T00:20:56;5.40;99.90
6252;DHT22;3159;52.414;9.784;2023-02-01T00:23:23;5.40;99.90
6252;DHT22;3159;52.414;9.784;2023-02-01T00:25:50;5.40;99.90
6252;DHT22;3159;52.414;9.784;2023-02-01T00:28:17;5.40;99.90
6252;DHT22;3159;52.414;9.784;2023-02-01T00:30:44;5.40;99.90
6252;DHT22;3159;52.414;9.784;2023-02-01T00:33:12;5.40;99.90
6252;DHT22;3159;52.414;9.784;2023-02-01T00:35:39;5.40;99.90
6252;DHT22;3159;52.414;9.784;2023-02-01T00:38:06;5.40;99.90
6252;DHT22;3159;52.414;9.784;2023-02-01T00:40:33;5.40;99.90
6252;DHT22;3159;52.414;9.784;2023-02-01T00:43:00;5.40;99.90
6252;DHT22;3159;52.414;9.784;2023-02-01T00:45:27;5.40;99.90
6252;DHT22;3159;52.414;9.784;2023-02-01T00:47:53;5.40;99.90
6252;DHT22;3159;52.414;9.784;2023-02-01T00:50:22;5.30;99.90
6252;DHT22;3159;52.414;9.784;2023-02-01T00:52:48;5.40;99.90
6252;DHT22;3159;52.414;9.784;2023-02-01T00:55:15;5.30;99.90
6252;DHT22;3159;52.414;9.784;2023-02-01T00:57:42;5.40;99.90
6252;DHT22;3159;52.414;9.784;2023-02-01T01:00:10;5.30;99.90
6252;DHT22;3159;52.414;9.784;2023-02-01T01:02:38;5.30;99.90
6252;DHT22;3159;52.414;9.784;2023-02-01T01:05:05;5.30;99.90
6252;DHT22;3159;52.414;9.784;2023-02-01T01:07:33;5.20;99.90
6252;DHT22;3159;52.414;9.784;2023-02-01T01:10:00;5.30;99.90
6252;DHT22;3159;52.414;9.784;2023-02-01T01:12:26;5.30;99.90
6252;DHT22;3159;52.414;9.784;2023-02-01T01:14:53;5.30;99.90
6252;DHT22;3159;52.414;9.784;2023-02-01T01:17:20;5.20;99.90
6252;DHT22;3159;52.414;9.784;2023-02-01T01:19:47;5.30;99.90
6252;DHT22;3159;52.414;9.784;2023-02-01T01:22:14;5.30;99.90
6252;DHT22;3159;52.414;9.784;2023-02-01T01:24:42;5.30;99.90
6252;DHT22;3159;52.414;9.784;2023-02-01T01:27:09;5.30;99.90
6252;DHT22;3159;52.414;9.784;2023-02-01T01:29:36;5.20;99.90
6252;DHT22;3159;52.414;9.784;2023-02-01T01:32:03;5.30;99.90
6252;DHT22;3159;52.414;9.784;2023-02-01T01:34:30;5.30;99.90
6252;DHT22;3159;52.414;9.784;2023-02-01T01:36:56;5.30;99.90
6252;DHT22;3159;52.414;9.784;2023-02-01T01:39:23;5.30;99.90
6252;DHT22;3159;52.414;9.784;2023-02-01T01:41:52;5.30;99.90
6252;DHT22;3159;52.414;9.784;2023-02-01T01:44:56;5.30;99.90
6252;DHT22;3159;52.414;9.784;2023-02-01T01:47:24;5.40;99.90
6252;DHT22;3159;52.414;9.784;2023-02-01T01:49:51;5.30;99.90
6252;DHT22;3159;52.414;9.784;2023-02-01T01:52:19;5.30;99.90
6252;DHT22;3159;52.414;9.784;2023-02-01T01:54:48;5.30;99.90
6252;DHT22;3159;52.414;9.784;2023-02-01T01:57:19;5.30;99.90
6252;DHT22;3159;52.414;9.784;2023-02-01T01:59:50;5.20;99.90
6252;DHT22;3159;52.414;9.784;2023-02-01T02:02:19;5.30;99.90
6252;DHT22;3159;52.414;9.784;2023-02-01T02:04:47;5.30;99.90
6252;DHT22;3159;52.414;9.784;2023-02-01T02:07:17;5.30;99.90
6252;DHT22;3159;52.414;9.784;2023-02-01T02:09:46;5.30;99.90
6252;DHT22;3159;52.414;9.784;2023-02-01T02:12:13;5.30;99.90
6252;DHT22;3159;52.414;9.784;2023-02-01T02:14:41;5.30;99.90
6252;DHT22;3159;52.414;9.784;2023-02-01T02:17:18;5.30;99.90
6252;DHT22;3159;52.414;9.784;2023-02-01T02:20:13;5.30;99.90
6252;DHT22;3159;52.414;9.784;2023-02-01T02:23:11;5.20;99.90
6252;DHT22;3159;52.414;9.784;2023-02-01T02:26:13;5.20;99.90
6252;DHT22;3159;52.414;9.784;2023-02-01T02:34:37;5.20;99.90
6252;DHT22;3159;52.414;9.784;2023-02-01T02:37:12;5.20;99.90
6252;DHT22;3159;52.414;9.784;2023-02-01T02:39:50;5.20;99.90
6252;DHT22;3159;52.414;9.784;2023-02-01T02:42:25;5.20;99.90
6252;DHT22;3159;52.414;9.784;2023-02-01T02:45:17;5.20;99.90
6252;DHT22;3159;52.414;9.784;2023-02-01T02:48:08;5.30;99.90
6252;DHT22;3159;52.414;9.784;2023-02-01T02:50:41;5.20;99.90
6252;DHT22;3159;52.414;9.784;2023-02-01T02:53:33;5.30;99.90
6252;DHT22;3159;52.414;9.784;2023-02-01T02:56:21;5.30;99.90
6252;DHT22;3159;52.414;9.784;2023-02-01T02:59:07;5.30;99.90
6252;DHT22;3159;52.414;9.784;2023-02-01T03:01:52;5.30;99.90
6252;DHT22;3159;52.414;9.784;2023-02-01T03:04:37;5.30;99.90
6252;DHT22;3159;52.414;9.784;2023-02-01T03:10:16;5.30;99.90
6252;DHT22;3159;52.414;9.784;2023-02-01T03:12:44;5.40;99.90
6252;DHT22;3159;52.414;9.784;2023-02-01T03:15:24;5.30;99.90
6252;DHT22;3159;52.414;9.784;2023-02-01T03:17:56;5.40;99.90
6252;DHT22;3159;52.414;9.784;2023-02-01T03:20:25;5.40;99.90
6252;DHT22;3159;52.414;9.784;2023-02-01T03:22:53;5.40;99.90
6252;DHT22;3159;52.414;9.784;2023-02-01T03:25:25;5.40;99.90
6252;DHT22;3159;52.414;9.784;2023-02-01T03:27:57;5.40;99.90
6252;DHT22;3159;52.414;9.784;2023-02-01T03:30:28;5.40;99.90
6252;DHT22;3159;52.414;9.784;2023-02-01T03:32:58;5.40;99.90
6252;DHT22;3159;52.414;9.784;2023-02-01T03:35:29;5.40;99.90
6252;DHT22;3159;52.414;9.784;2023-02-01T03:38:01;5.40;99.90
6252;DHT22;3159;52.414;9.784;2023-02-01T03:40:33;5.40;99.90
6252;DHT22;3159;52.414;9.784;2023-02-01T03:43:02;5.40;99.90
6252;DHT22;3159;52.414;9.784;2023-02-01T03:45:34;5.40;99.90
6252;DHT22;3159;52.414;9.784;2023-02-01T03:48:05;5.40;99.90
6252;DHT22;3159;52.414;9.784;2023-02-01T03:50:33;5.50;99.90
6252;DHT22;3159;52.414;9.784;2023-02-01T03:53:04;5.40;99.90
6252;DHT22;3159;52.414;9.784;2023-02-01T03:55:34;5.40;99.90
6252;DHT22;3159;52.414;9.784;2023-02-01T03:58:06;5.40;99.90
6252;DHT22;3159;52.414;9.784;2023-02-01T04:00:33;5.40;99.90
6252;DHT22;3159;52.414;9.784;2023-02-01T04:03:01;5.40;99.90
6252;DHT22;3159;52.414;9.784;2023-02-01T04:05:29;5.40;99.90
6252;DHT22;3159;52.414;9.784;2023-02-01T04:07:56;5.40;99.90
6252;DHT22;3159;52.414;9.784;2023-02-01T04:10:24;5.30;99.90
6252;DHT22;3159;52.414;9.784;2023-02-01T04:12:52;5.40;99.90
6252;DHT22;3159;52.414;9.784;2023-02-01T04:15:19;5.30;99.90
6252;DHT22;3159;52.414;9.784;2023-02-01T04:17:46;5.40;99.90
6252;DHT22;3159;52.414;9.784;2023-02-01T04:20:13;5.30;99.90
6252;DHT22;3159;52.414;9.784;2023-02-01T04:22:39;5.40;99.90
6252;DHT22;3159;52.414;9.784;2023-02-01T04:25:07;5.40;99.90
6252;DHT22;3159;52.414;9.784;2023-02-01T04:27:34;5.40;99.90
6252;DHT22;3159;52.414;9.784;2023-02-01T04:30:03;5.40;99.90
6252;DHT22;3159;52.414;9.784;2023-02-01T04:32:30;5.40;99.90
6252;DHT22;3159;52.414;9.784;2023-02-01T04:34:57;5.30;99.90
6252;DHT22;3159;52.414;9.784;2023-02-01T04:37:23;5.30;99.90
6252;DHT22;3159;52.414;9.784;2023-02-01T04:39:50;5.30;99.90
6252;DHT22;3159;52.414;9.784;2023-02-01T04:42:17;5.30;99.90
6252;DHT22;3159;52.414;9.784;2023-02-01T04:44:44;5.30;99.90
6252;DHT22;3159;52.414;9.784;2023-02-01T04:47:12;5.40;99.90
6252;DHT22;3159;52.414;9.784;2023-02-01T04:49:40;5.40;99.90
6252;DHT22;3159;52.414;9.784;2023-02-01T04:52:07;5.40;99.90
6252;DHT22;3159;52.414;9.784;2023-02-01T04:54:34;5.40;99.90
6252;DHT22;3159;52.414;9.784;2023-02-01T04:57:01;5.40;99.90
6252;DHT22;3159;52.414;9.784;2023-02-01T04:59:28;5.30;99.90
6252;DHT22;3159;52.414;9.784;2023-02-01T05:01:55;5.30;99.90
6252;DHT22;3159;52.414;9.784;2023-02-01T05:04:23;5.20;99.90
6252;DHT22;3159;52.414;9.784;2023-02-01T05:06:50;5.20;99.90
6252;DHT22;3159;52.414;9.784;2023-02-01T05:09:17;5.20;99.90
6252;DHT22;3159;52.414;9.784;2023-02-01T05:11:43;5.20;99.90
6252;DHT22;3159;52.414;9.784;2023-02-01T05:14:28;5.20;99.90
6252;DHT22;3159;52.414;9.784;2023-02-01T05:16:55;5.20;99.90
6252;DHT22;3159;52.414;9.784;2023-02-01T05:19:23;5.20;99.90
6252;DHT22;3159;52.414;9.784;2023-02-01T05:21:50;5.10;99.90
6252;DHT22;3159;52.414;9.784;2023-02-01T05:24:17;5.10;99.90
6252;DHT22;3159;52.414;9.784;2023-02-01T05:26:47;5.10;99.90
6252;DHT22;3159;52.414;9.784;2023-02-01T05:29:16;5.00;99.90
6252;DHT22;3159;52.414;9.784;2023-02-01T05:31:44;5.10;99.90
6252;DHT22;3159;52.414;9.784;2023-02-01T05:34:12;5.00;99.90
6252;DHT22;3159;52.414;9.784;2023-02-01T05:36:40;5.00;99.90
6252;DHT22;3159;52.414;9.784;2023-02-01T05:39:07;5.00;99.90
6252;DHT22;3159;52.414;9.784;2023-02-01T05:41:35;5.00;99.90
6252;DHT22;3159;52.414;9.784;2023-02-01T05:44:02;5.00;99.90
6252;DHT22;3159;52.414;9.784;2023-02-01T05:46:29;5.00;99.90
6252;DHT22;3159;52.414;9.784;2023-02-01T05:48:56;5.00;99.90
6252;DHT22;3159;52.414;9.784;2023-02-01T05:51:23;5.00;99.90
6252;DHT22;3159;52.414;9.784;2023-02-01T05:53:51;5.10;99.90
6252;DHT22;3159;52.414;9.784;2023-02-01T05:56:18;5.10;99.90
6252;DHT22;3159;52.414;9.784;2023-02-01T05:58:45;5.10;99.90
6252;DHT22;3159;52.414;9.784;2023-02-01T06:01:11;5.00;99.90
6252;DHT22;3159;52.414;9.784;2023-02-01T06:03:38;5.00;99.90
6252;DHT22;3159;52.414;9.784;2023-02-01T06:06:05;5.10;99.90
6252;DHT22;3159;52.414;9.784;2023-02-01T06:08:32;5.10;99.90
6252;DHT22;3159;52.414;9.784;2023-02-01T06:11:01;5.10;99.90
6252;DHT22;3159;52.414;9.784;2023-02-01T06:13:28;5.10;99.90
6252;DHT22;3159;52.414;9.784;2023-02-01T06:15:55;5.20;99.90
6252;DHT22;3159;52.414;9.784;2023-02-01T06:18:22;5.20;99.90
6252;DHT22;3159;52.414;9.784;2023-02-01T06:20:53;5.20;99.90
6252;DHT22;3159;52.414;9.784;2023-02-01T06:23:19;5.20;99.90
6252;DHT22;3159;52.414;9.784;2023-02-01T06:25:50;5.20;99.90
6252;DHT22;3159;52.414;9.784;2023-02-01T06:28:19;5.20;99.90
6252;DHT22;3159;52.414;9.784;2023-02-01T06:30:46;5.20;99.90
6252;DHT22;3159;52.414;9.784;2023-02-01T06:33:13;5.20;99.90
6252;DHT22;3159;52.414;9.784;2023-02-01T06:35:41;5.20;99.90
6252;DHT22;3159;52.414;9.784;2023-02-01T06:38:09;5.20;99.90
6252;DHT22;3159;52.414;9.784;2023-02-01T06:40:36;5.20;99.90
6252;DHT22;3159;52.414;9.784;2023-02-01T06:43:03;5.20;99.90
6252;DHT22;3159;52.414;9.784;2023-02-01T06:45:32;5.20;99.90
6252;DHT22;3159;52.414;9.784;2023-02-01T06:47:59;5.20;99.90
6252;DHT22;3159;52.414;9.784;2023-02-01T06:50:27;5.20;99.90
6252;DHT22;3159;52.414;9.784;2023-02-01T06:52:54;5.20;99.90
6252;DHT22;3159;52.414;9.784;2023-02-01T06:55:21;5.20;99.90
6252;DHT22;3159;52.414;9.784;2023-02-01T06:57:48;5.10;99.90
6252;DHT22;3159;52.414;9.784;2023-02-01T07:00:19;5.10;99.90
6252;DHT22;3159;52.414;9.784;2023-02-01T07:02:51;5.10;99.90
6252;DHT22;3159;52.414;9.784;2023-02-01T07:05:17;5.00;99.90
6252;DHT22;3159;52.414;9.784;2023-02-01T07:07:44;5.10;99.90
6252;DHT22;3159;52.414;9.784;2023-02-01T07:10:11;5.00;99.90
6252;DHT22;3159;52.414;9.784;2023-02-01T07:12:38;5.10;99.90
6252;DHT22;3159;52.414;9.784;2023-02-01T07:15:06;5.10;99.90
6252;DHT22;3159;52.414;9.784;2023-02-01T07:17:33;5.10;99.90
6252;DHT22;3159;52.414;9.784;2023-02-01T07:20:01;5.10;99.90
6252;DHT22;3159;52.414;9.784;2023-02-01T07:22:28;5.20;99.90
6252;DHT22;3159;52.414;9.784;2023-02-01T07:24:55;5.10;99.90
6252;DHT22;3159;52.414;9.784;2023-02-01T07:27:22;5.10;99.90
6252;DHT22;3159;52.414;9.784;2023-02-01T07:29:50;5.20;99.90
6252;DHT22;3159;52.414;9.784;2023-02-01T07:32:17;5.20;99.90
6252;DHT22;3159;52.414;9.784;2023-02-01T07:34:44;5.20;99.90
6252;DHT22;3159;52.414;9.784;2023-02-01T07:37:12;5.10;99.90
6252;DHT22;3159;52.414;9.784;2023-02-01T07:39:39;5.20;99.90
6252;DHT22;3159;52.414;9.784;2023-02-01T07:42:06;5.30;99.90
6252;DHT22;3159;52.414;9.784;2023-02-01T07:44:33;5.30;99.90
6252;DHT22;3159;52.414;9.784;2023-02-01T07:47:00;5.30;99.90
6252;DHT22;3159;52.414;9.784;2023-02-01T07:49:27;5.30;99.90
6252;DHT22;3159;52.414;9.784;2023-02-01T07:51:53;5.30;99.90
6252;DHT22;3159;52.414;9.784;2023-02-01T07:54:22;5.30;99.90
6252;DHT22;3159;52.414;9.784;2023-02-01T07:56:48;5.40;99.90
6252;DHT22;3159;52.414;9.784;2023-02-01T07:59:15;5.40;99.90
6252;DHT22;3159;52.414;9.784;2023-02-01T08:01:42;5.40;99.90
6252;DHT22;3159;52.414;9.784;2023-02-01T08:04:11;5.40;99.90
6252;DHT22;3159;52.414;9.784;2023-02-01T08:06:39;5.40;99.90
6252;DHT22;3159;52.414;9.784;2023-02-01T08:09:07;5.40;99.90
6252;DHT22;3159;52.414;9.784;2023-02-01T08:11:37;5.40;99.90
6252;DHT22;3159;52.414;9.784;2023-02-01T08:14:04;5.50;99.90
6252;DHT22;3159;52.414;9.784;2023-02-01T08:16:31;5.50;99.90
6252;DHT22;3159;52.414;9.784;2023-02-01T08:19:00;5.50;99.90
6252;DHT22;3159;52.414;9.784;2023-02-01T08:21:28;5.50;99.90
6252;DHT22;3159;52.414;9.784;2023-02-01T08:24:03;5.60;99.90
6252;DHT22;3159;52.414;9.784;2023-02-01T08:26:30;5.60;99.90
6252;DHT22;3159;52.414;9.784;2023-02-01T08:29:00;5.60;99.90
6252;DHT22;3159;52.414;9.784;2023-02-01T08:31:29;5.60;99.90
6252;DHT22;3159;52.414;9.784;2023-02-01T08:33:57;5.60;99.90
6252;DHT22;3159;52.414;9.784;2023-02-01T08:36:25;5.70;99.90
6252;DHT22;3159;52.414;9.784;2023-02-01T08:38:53;5.70;99.90
6252;DHT22;3159;52.414;9.784;2023-02-01T08:41:22;5.60;99.90
6252;DHT22;3159;52.414;9.784;2023-02-01T08:43:49;5.60;99.90
6252;DHT22;3159;52.414;9.784;2023-02-01T08:46:17;5.70;99.90
6252;DHT22;3159;52.414;9.784;2023-02-01T08:48:45;5.70;99.90
6252;DHT22;3159;52.414;9.784;2023-02-01T08:51:15;5.70;99.90
6252;DHT22;3159;52.414;9.784;2023-02-01T08:53:43;5.80;99.90
6252;DHT22;3159;52.414;9.784;2023-02-01T08:56:11;5.90;99.90
6252;DHT22;3159;52.414;9.784;2023-02-01T08:58:38;5.90;99.90
6252;DHT22;3159;52.414;9.784;2023-02-01T09:01:06;6.00;99.90
6252;DHT22;3159;52.414;9.784;2023-02-01T09:03:35;5.90;99.90
6252;DHT22;3159;52.414;9.784;2023-02-01T09:06:03;6.00;99.90
6252;DHT22;3159;52.414;9.784;2023-02-01T09:08:31;6.00;99.90
6252;DHT22;3159;52.414;9.784;2023-02-01T09:11:01;6.00;99.90
6252;DHT22;3159;52.414;9.784;2023-02-01T09:13:28;6.10;99.90
6252;DHT22;3159;52.414;9.784;2023-02-01T09:15:55;6.10;99.90
6252;DHT22;3159;52.414;9.784;2023-02-01T09:18:22;6.10;99.90
6252;DHT22;3159;52.414;9.784;2023-02-01T09:20:51;6.20;99.90
6252;DHT22;3159;52.414;9.784;2023-02-01T09:23:18;6.30;99.90
6252;DHT22;3159;52.414;9.784;2023-02-01T09:25:46;6.30;99.90
6252;DHT22;3159;52.414;9.784;2023-02-01T09:28:15;6.30;99.90
6252;DHT22;3159;52.414;9.784;2023-02-01T09:30:42;6.40;99.90
6252;DHT22;3159;52.414;9.784;2023-02-01T09:33:09;6.40;99.90
6252;DHT22;3159;52.414;9.784;2023-02-01T09:35:36;6.50;99.90
6252;DHT22;3159;52.414;9.784;2023-02-01T09:38:05;6.40;99.90
6252;DHT22;3159;52.414;9.784;2023-02-01T09:40:33;6.40;99.90
6252;DHT22;3159;52.414;9.784;2023-02-01T09:43:12;6.40;99.90
6252;DHT22;3159;52.414;9.784;2023-02-01T09:45:48;6.50;99.90
6252;DHT22;3159;52.414;9.784;2023-02-01T09:48:19;6.50;99.90
6252;DHT22;3159;52.414;9.784;2023-02-01T09:50:50;6.60;99.90
6252;DHT22;3159;52.414;9.784;2023-02-01T09:53:23;6.50;99.90
6252;DHT22;3159;52.414;9.784;2023-02-01T09:55:54;6.50;99.90
6252;DHT22;3159;52.414;9.784;2023-02-01T09:58:24;6.60;99.90
6252;DHT22;3159;52.414;9.784;2023-02-01T10:00:56;6.50;99.90
6252;DHT22;3159;52.414;9.784;2023-02-01T10:03:24;6.60;99.90
6252;DHT22;3159;52.414;9.784;2023-02-01T10:06:06;6.70;99.90
6252;DHT22;3159;52.414;9.784;2023-02-01T10:08:51;6.70;99.90
6252;DHT22;3159;52.414;9.784;2023-02-01T10:11:29;6.70;99.90
6252;DHT22;3159;52.414;9.784;2023-02-01T10:14:20;6.70;99.90
6252;DHT22;3159;52.414;9.784;2023-02-01T10:16:56;6.70;99.90
6252;DHT22;3159;52.414;9.784;2023-02-01T10:19:36;6.80;99.90
6252;DHT22;3159;52.414;9.784;2023-02-01T10:22:09;6.70;99.90
6252;DHT22;3159;52.414;9.784;2023-02-01T10:24:43;6.80;99.90
6252;DHT22;3159;52.414;9.784;2023-02-01T10:27:17;6.80;99.90
6252;DHT22;3159;52.414;9.784;2023-02-01T10:29:46;6.80;99.90
6252;DHT22;3159;52.414;9.784;2023-02-01T10:32:15;6.80;99.90
6252;DHT22;3159;52.414;9.784;2023-02-01T10:34:44;6.80;99.90
6252;DHT22;3159;52.414;9.784;2023-02-01T10:37:20;6.80;99.90
6252;DHT22;3159;52.414;9.784;2023-02-01T10:39:53;6.80;99.90
6252;DHT22;3159;52.414;9.784;2023-02-01T10:42:23;6.80;99.90
6252;DHT22;3159;52.414;9.784;2023-02-01T10:44:50;6.80;99.90
6252;DHT22;3159;52.414;9.784;2023-02-01T10:47:18;6.80;99.90
6252;DHT22;3159;52.414;9.784;2023-02-01T10:49:49;6.80;99.90
6252;DHT22;3159;52.414;9.784;2023-02-01T10:52:21;6.90;99.90
6252;DHT22;3159;52.414;9.784;2023-02-01T10:54:53;7.00;99.90
6252;DHT22;3159;52.414;9.784;2023-02-01T10:57:22;6.80;99.90
6252;DHT22;3159;52.414;9.784;2023-02-01T10:59:51;6.80;99.90
6252;DHT22;3159;52.414;9.784;2023-02-01T11:02:26;6.80;99.90
6252;DHT22;3159;52.414;9.784;2023-02-01T11:05:00;6.80;99.90
6252;DHT22;3159;52.414;9.784;2023-02-01T11:07:29;6.80;99.90
6252;DHT22;3159;52.414;9.784;2023-02-01T11:09:57;6.80;99.90
6252;DHT22;3159;52.414;9.784;2023-02-01T11:12:28;6.80;99.90
6252;DHT22;3159;52.414;9.784;2023-02-01T11:15:02;6.90;99.90
6252;DHT22;3159;52.414;9.784;2023-02-01T11:17:33;7.00;99.90
6252;DHT22;3159;52.414;9.784;2023-02-01T11:20:03;6.90;99.90
6252;DHT22;3159;52.414;9.784;2023-02-01T11:22:31;6.90;99.90
6252;DHT22;3159;52.414;9.784;2023-02-01T11:25:01;6.80;99.90
6252;DHT22;3159;52.414;9.784;2023-02-01T11:27:34;6.90;99.90
6252;DHT22;3159;52.414;9.784;2023-02-01T11:30:02;6.80;99.90
6252;DHT22;3159;52.414;9.784;2023-02-01T11:32:30;6.90;99.90
6252;DHT22;3159;52.414;9.784;2023-02-01T11:35:00;6.90;99.90
6252;DHT22;3159;52.414;9.784;2023-02-01T11:37:30;7.00;99.90
6252;DHT22;3159;52.414;9.784;2023-02-01T11:40:00;7.00;99.90
6252;DHT22;3159;52.414;9.784;2023-02-01T11:42:29;7.00;99.90
6252;DHT22;3159;52.414;9.784;2023-02-01T11:45:27;7.10;99.90
6252;DHT22;3159;52.414;9.784;2023-02-01T11:47:55;7.10;99.90
6252;DHT22;3159;52.414;9.784;2023-02-01T11:50:30;7.10;99.90
6252;DHT22;3159;52.414;9.784;2023-02-01T11:53:20;7.20;99.90
6252;DHT22;3159;52.414;9.784;2023-02-01T11:55:58;7.00;99.90
6252;DHT22;3159;52.414;9.784;2023-02-01T11:59:04;7.00;99.90
6252;DHT22;3159;52.414;9.784;2023-02-01T12:01:47;7.00;99.90
6252;DHT22;3159;52.414;9.784;2023-02-01T12:04:45;7.00;99.90
6252;DHT22;3159;52.414;9.784;2023-02-01T12:07:20;7.00;99.90
6252;DHT22;3159;52.414;9.784;2023-02-01T12:09:57;7.10;99.90
6252;DHT22;3159;52.414;9.784;2023-02-01T12:12:33;7.10;99.90
6252;DHT22;3159;52.414;9.784;2023-02-01T12:15:12;7.20;99.90
6252;DHT22;3159;52.414;9.784;2023-02-01T12:20:59;7.20;99.90
6252;DHT22;3159;52.414;9.784;2023-02-01T12:23:42;7.20;99.90
6252;DHT22;3159;52.414;9.784;2023-02-01T12:29:45;6.90;99.90
6252;DHT22;3159;52.414;9.784;2023-02-01T12:32:29;6.80;99.90
6252;DHT22;3159;52.414;9.784;2023-02-01T12:35:19;6.60;99.90
6252;DHT22;3159;52.414;9.784;2023-02-01T12:38:00;6.50;99.90
6252;DHT22;3159;52.414;9.784;2023-02-01T12:40:56;6.50;99.90
6252;DHT22;3159;52.414;9.784;2023-02-01T12:43:36;6.50;99.90
6252;DHT22;3159;52.414;9.784;2023-02-01T12:46:07;6.40;99.90
6252;DHT22;3159;52.414;9.784;2023-02-01T12:48:40;6.30;99.90
6252;DHT22;3159;52.414;9.784;2023-02-01T12:51:12;6.30;99.90
6252;DHT22;3159;52.414;9.784;2023-02-01T12:53:47;6.30;99.90
6252;DHT22;3159;52.414;9.784;2023-02-01T12:56:21;6.20;99.90
6252;DHT22;3159;52.414;9.784;2023-02-01T12:58:51;6.10;99.90
6252;DHT22;3159;52.414;9.784;2023-02-01T13:01:25;6.10;99.90
6252;DHT22;3159;52.414;9.784;2023-02-01T13:04:02;6.20;99.90
6252;DHT22;3159;52.414;9.784;2023-02-01T13:06:35;6.10;99.90
6252;DHT22;3159;52.414;9.784;2023-02-01T13:09:09;6.10;99.90
6252;DHT22;3159;52.414;9.784;2023-02-01T13:11:40;6.10;99.90
6252;DHT22;3159;52.414;9.784;2023-02-01T13:14:17;6.00;99.90
6252;DHT22;3159;52.414;9.784;2023-02-01T13:16:48;6.00;99.90
6252;DHT22;3159;52.414;9.784;2023-02-01T13:22:05;5.90;99.90
6252;DHT22;3159;52.414;9.784;2023-02-01T13:24:37;5.70;99.90
6252;DHT22;3159;52.414;9.784;2023-02-01T13:27:08;5.70;99.90
6252;DHT22;3159;52.414;9.784;2023-02-01T13:29:36;5.70;99.90
6252;DHT22;3159;52.414;9.784;2023-02-01T13:32:18;5.70;99.90
6252;DHT22;3159;52.414;9.784;2023-02-01T13:35:11;5.70;99.90
6252;DHT22;3159;52.414;9.784;2023-02-01T13:38:22;5.20;99.90
6252;DHT22;3159;52.414;9.784;2023-02-01T13:41:04;5.00;99.90
6252;DHT22;3159;52.414;9.784;2023-02-01T13:43:34;4.90;99.90
6252;DHT22;3159;52.414;9.784;2023-02-01T13:46:06;4.90;99.90
6252;DHT22;3159;52.414;9.784;2023-02-01T13:48:40;4.70;99.90
6252;DHT22;3159;52.414;9.784;2023-02-01T13:51:08;4.70;99.90
6252;DHT22;3159;52.414;9.784;2023-02-01T13:53:36;4.50;99.90
6252;DHT22;3159;52.414;9.784;2023-02-01T13:56:10;4.30;99.90
6252;DHT22;3159;52.414;9.784;2023-02-01T13:58:39;4.20;99.90
6252;DHT22;3159;52.414;9.784;2023-02-01T14:07:19;4.30;99.90
6252;DHT22;3159;52.414;9.784;2023-02-01T14:09:46;4.20;99.90
6252;DHT22;3159;52.414;9.784;2023-02-01T14:12:46;4.10;99.90
6252;DHT22;3159;52.414;9.784;2023-02-01T14:15:25;4.00;99.90
6252;DHT22;3159;52.414;9.784;2023-02-01T14:17:52;3.90;99.90
6252;DHT22;3159;52.414;9.784;2023-02-01T14:20:43;3.90;99.90
6252;DHT22;3159;52.414;9.784;2023-02-01T14:23:26;3.80;99.90
6252;DHT22;3159;52.414;9.784;2023-02-01T14:26:17;3.90;99.90
6252;DHT22;3159;52.414;9.784;2023-02-01T14:28:53;3.90;99.90
6252;DHT22;3159;52.414;9.784;2023-02-01T14:31:39;3.70;99.90
6252;DHT22;3159;52.414;9.784;2023-02-01T14:34:14;3.70;99.90
6252;DHT22;3159;52.414;9.784;2023-02-01T14:36:48;3.80;99.90
6252;DHT22;3159;52.414;9.784;2023-02-01T14:39:46;3.80;99.90
6252;DHT22;3159;52.414;9.784;2023-02-01T14:42:21;3.90;99.90
6252;DHT22;3159;52.414;9.784;2023-02-01T14:44:49;3.80;99.90
6252;DHT22;3159;52.414;9.784;2023-02-01T14:47:31;3.90;99.90
6252;DHT22;3159;52.414;9.784;2023-02-01T14:50:29;3.90;99.90
6252;DHT22;3159;52.414;9.784;2023-02-01T14:53:06;4.00;99.90
6252;DHT22;3159;52.414;9.784;2023-02-01T14:55:40;4.00;99.90
6252;DHT22;3159;52.414;9.784;2023-02-01T14:58:15;3.80;99.90
6252;DHT22;3159;52.414;9.784;2023-02-01T15:00:49;3.80;99.90
6252;DHT22;3159;52.414;9.784;2023-02-01T15:03:25;3.80;99.90
6252;DHT22;3159;52.414;9.784;2023-02-01T15:05:58;3.70;99.90
6252;DHT22;3159;52.414;9.784;2023-02-01T15:08:30;3.80;99.90
6252;DHT22;3159;52.414;9.784;2023-02-01T15:11:01;3.70;99.90
6252;DHT22;3159;52.414;9.784;2023-02-01T15:13:29;3.80;99.90
6252;DHT22;3159;52.414;9.784;2023-02-01T15:16:10;3.80;99.90
6252;DHT22;3159;52.414;9.784;2023-02-01T15:18:37;3.90;99.90
6252;DHT22;3159;52.414;9.784;2023-02-01T15:21:05;3.80;99.90
6252;DHT22;3159;52.414;9.784;2023-02-01T15:23:33;3.90;99.90
6252;DHT22;3159;52.414;9.784;2023-02-01T15:26:01;3.90;99.90
6252;DHT22;3159;52.414;9.784;2023-02-01T15:28:28;3.90;99.90
6252;DHT22;3159;52.414;9.784;2023-02-01T15:30:56;3.90;99.90
6252;DHT22;3159;52.414;9.784;2023-02-01T15:33:24;3.80;99.90
6252;DHT22;3159;52.414;9.784;2023-02-01T15:35:53;3.90;99.90
6252;DHT22;3159;52.414;9.784;2023-02-01T15:38:36;3.90;99.90
6252;DHT22;3159;52.414;9.784;2023-02-01T15:41:07;3.90;99.90
6252;DHT22;3159;52.414;9.784;2023-02-01T15:43:39;3.80;99.90
6252;DHT22;3159;52.414;9.784;2023-02-01T15:46:10;3.90;99.90
6252;DHT22;3159;52.414;9.784;2023-02-01T15:48:43;3.90;99.90
6252;DHT22;3159;52.414;9.784;2023-02-01T15:51:17;3.90;99.90
6252;DHT22;3159;52.414;9.784;2023-02-01T15:53:47;3.90;99.90
6252;DHT22;3159;52.414;9.784;2023-02-01T15:56:24;4.00;99.90
6252;DHT22;3159;52.414;9.784;2023-02-01T15:58:54;4.00;99.90
6252;DHT22;3159;52.414;9.784;2023-02-01T16:01:22;3.90;99.90
6252;DHT22;3159;52.414;9.784;2023-02-01T16:03:54;3.90;99.90
6252;DHT22;3159;52.414;9.784;2023-02-01T16:06:30;4.00;99.90
6252;DHT22;3159;52.414;9.784;2023-02-01T16:09:02;4.00;99.90
6252;DHT22;3159;52.414;9.784;2023-02-01T16:11:46;4.00;99.90
6252;DHT22;3159;52.414;9.784;2023-02-01T16:14:14;4.00;99.90
6252;DHT22;3159;52.414;9.784;2023-02-01T16:16:42;4.00;99.90
6252;DHT22;3159;52.414;9.784;2023-02-01T16:19:09;4.00;99.90
6252;DHT22;3159;52.414;9.784;2023-02-01T16:21:36;3.90;99.90
6252;DHT22;3159;52.414;9.784;2023-02-01T16:24:03;4.00;99.90
6252;DHT22;3159;52.414;9.784;2023-02-01T16:26:30;4.10;99.90
6252;DHT22;3159;52.414;9.784;2023-02-01T16:28:59;4.00;99.90
6252;DHT22;3159;52.414;9.784;2023-02-01T16:31:32;3.90;99.90
6252;DHT22;3159;52.414;9.784;2023-02-01T16:34:00;3.90;99.90
6252;DHT22;3159;52.414;9.784;2023-02-01T16:36:27;3.90;99.90
6252;DHT22;3159;52.414;9.784;2023-02-01T16:38:54;4.00;99.90
6252;DHT22;3159;52.414;9.784;2023-02-01T16:41:22;4.00;99.90
6252;DHT22;3159;52.414;9.784;2023-02-01T16:43:50;4.00;99.90
6252;DHT22;3159;52.414;9.784;2023-02-01T16:46:20;4.00;99.90
6252;DHT22;3159;52.414;9.784;2023-02-01T16:48:52;4.10;99.90
6252;DHT22;3159;52.414;9.784;2023-02-01T16:51:20;4.10;99.90
6252;DHT22;3159;52.414;9.784;2023-02-01T16:53:46;4.20;99.90
6252;DHT22;3159;52.414;9.784;2023-02-01T16:56:15;4.20;99.90
6252;DHT22;3159;52.414;9.784;2023-02-01T16:58:43;4.30;99.90
6252;DHT22;3159;52.414;9.784;2023-02-01T17:01:11;4.30;99.90
6252;DHT22;3159;52.414;9.784;2023-02-01T17:03:39;4.30;99.90
6252;DHT22;3159;52.414;9.784;2023-02-01T17:06:08;4.30;99.90
6252;DHT22;3159;52.414;9.784;2023-02-01T17:08:40;4.40;99.90